Time;durP1;ratioP1;P1;durP2;ratioP2;P2;SDS_P1;SDS_P2;PMS_P1;PMS_P2;Temp;Humidity;BMP_temperature;BMP_pressure;BME280_temperature;BME280_humidity;BME280_pressure;Samples;Min_cycle;Max_cycle;Signal;HPM_P1;HPM_P2
2022/01/02 00:00:22;;;;;;;15.52;6.72;;;;;;;-141.50;100.00;63355.56;5089701;28;20082;-81
2022/01/02 00:02:50;;;;;;;15.95;6.22;;;;;;;-141.50;100.00;63355.56;5089212;28;20109;-78
2022/01/02 00:05:20;;;;;;;15.75;6.40;;;;;;;-141.50;100.00;63355.56;5092369;28;20131;-81
2022/01/02 00:08:06;;;;;;;17.38;6.55;;;;;;;-141.50;100.00;63355.56;5092388;28;20113;-80
2022/01/02 00:10:49;;;;;;;15.73;6.57;;;;;;;-141.50;100.00;63355.56;5091183;28;20097;-82
2022/01/02 00:13:23;;;;;;;12.45;5.90;;;;;;;-141.50;100.00;63355.56;5090548;28;20520;-82
2022/01/02 00:15:51;;;;;;;15.30;5.70;;;;;;;-141.50;100.00;63355.56;5091433;28;20047;-81
2022/01/02 00:18:19;;;;;;;14.18;5.97;;;;;;;-141.50;100.00;63355.56;5089346;28;20499;-79
2022/01/02 00:20:48;;;;;;;16.52;6.50;;;;;;;-141.50;100.00;63355.56;5089798;28;20074;-81
2022/01/02 00:23:21;;;;;;;18.45;6.10;;;;;;;-141.50;100.00;63355.56;5090582;28;20056;-81
2022/01/02 00:25:55;;;;;;;19.58;6.70;;;;;;;-141.50;100.00;63355.56;5091183;28;20056;-81
2022/01/02 00:28:22;;;;;;;12.73;5.97;;;;;;;-141.50;100.00;63355.56;5089892;28;20094;-80
2022/01/02 00:30:49;;;;;;;13.18;5.50;;;;;;;-141.50;100.00;63355.56;5090429;28;20047;-80
2022/01/02 00:33:19;;;;;;;13.32;6.10;;;;;;;-141.50;100.00;63355.56;5089797;28;20052;-80
2022/01/02 00:35:45;;;;;;;17.40;6.05;;;;;;;-141.50;100.00;63355.56;5090776;28;20088;-80
2022/01/02 00:38:20;;;;;;;12.45;5.40;;;;;;;-141.50;100.00;63355.56;5088297;28;20063;-79
2022/01/02 00:40:49;;;;;;;15.23;5.65;;;;;;;-141.50;100.00;63355.56;5089283;28;20052;-80
2022/01/02 00:43:33;;;;;;;15.98;5.88;;;;;;;-141.50;100.00;63355.56;5087742;28;20087;-80
2022/01/02 00:46:03;;;;;;;13.35;5.75;;;;;;;-141.50;100.00;63355.56;5091622;28;20052;-81
2022/01/02 00:48:31;;;;;;;15.63;6.22;;;;;;;-141.50;100.00;63355.56;5089588;28;20055;-82
2022/01/02 00:51:33;;;;;;;16.25;6.50;;;;;;;-141.50;100.00;63355.56;5091517;28;20423;-81
2022/01/02 00:54:01;;;;;;;14.32;6.75;;;;;;;-141.50;100.00;63355.56;5091013;28;20083;-81
2022/01/02 00:56:29;;;;;;;16.85;6.47;;;;;;;-141.50;100.00;63355.56;5088712;28;20196;-80
2022/01/02 00:59:00;;;;;;;15.27;5.90;;;;;;;-141.50;100.00;63355.56;5088348;28;20534;-80
2022/01/02 01:01:34;;;;;;;14.23;5.70;;;;;;;-141.50;100.00;63355.56;5088637;28;20144;-81
2022/01/02 01:04:02;;;;;;;13.30;6.05;;;;;;;-141.50;100.00;63355.56;5089452;28;20048;-81
2022/01/02 01:06:33;;;;;;;13.77;6.03;;;;;;;-141.50;100.00;63355.56;5089950;28;20079;-81
2022/01/02 01:09:04;;;;;;;13.45;5.85;;;;;;;-141.50;100.00;63355.56;5089706;28;20134;-81
2022/01/02 01:11:31;;;;;;;17.90;6.18;;;;;;;-141.50;100.00;63355.56;5088689;28;20086;-81
2022/01/02 01:13:59;;;;;;;18.88;6.43;;;;;;;-141.50;100.00;63355.56;5090810;28;20052;-82
2022/01/02 01:16:26;;;;;;;15.85;6.45;;;;;;;-141.50;100.00;63355.56;5090171;28;20056;-80
2022/01/02 01:18:53;;;;;;;15.13;5.85;;;;;;;-141.50;100.00;63355.56;5090227;28;20047;-82
2022/01/02 01:21:20;;;;;;;14.13;6.50;;;;;;;-141.50;100.00;63355.56;5089007;28;20044;-82
2022/01/02 01:23:46;;;;;;;9.82;5.90;;;;;;;-141.50;100.00;63355.56;5090455;28;20044;-81
2022/01/02 01:26:16;;;;;;;14.27;6.38;;;;;;;-141.50;100.00;63355.56;5090153;28;20420;-82
2022/01/02 01:28:42;;;;;;;12.02;6.03;;;;;;;-141.50;100.00;63355.56;5089919;28;20473;-81
2022/01/02 01:31:09;;;;;;;16.75;6.18;;;;;;;-141.50;100.00;63355.56;5088374;28;20565;-81
2022/01/02 01:33:36;;;;;;;14.95;5.97;;;;;;;-141.50;100.00;63355.56;5090099;28;20052;-81
2022/01/02 01:36:02;;;;;;;15.88;6.47;;;;;;;-141.50;100.00;63355.56;5089091;28;20052;-82
2022/01/02 01:38:29;;;;;;;19.55;6.40;;;;;;;-141.50;100.00;63355.56;5089586;28;20082;-82
2022/01/02 01:41:01;;;;;;;14.65;6.68;;;;;;;-141.50;100.00;63355.56;5087504;28;20056;-82
2022/01/02 01:43:38;;;;;;;15.27;6.50;;;;;;;-141.50;100.00;63355.56;5079890;28;20048;-81
2022/01/02 01:46:06;;;;;;;13.38;6.85;;;;;;;-141.50;100.00;63355.56;5079632;28;20134;-82
2022/01/02 01:48:32;;;;;;;16.77;6.93;;;;;;;-141.50;100.00;63355.56;5069934;28;20070;-82
2022/01/02 01:50:59;;;;;;;18.15;6.55;;;;;;;-141.50;100.00;63355.56;5078839;28;20060;-82
2022/01/02 01:53:25;;;;;;;17.42;6.78;;;;;;;-141.50;100.00;63355.56;5078000;28;20056;-82
2022/01/02 01:55:55;;;;;;;17.13;7.70;;;;;;;-141.50;100.00;63355.56;5083940;28;20056;-81
2022/01/02 01:58:22;;;;;;;15.35;6.78;;;;;;;-141.50;100.00;63355.56;5079925;28;20052;-82
2022/01/02 02:00:48;;;;;;;15.02;6.90;;;;;;;-141.50;100.00;63355.56;5083068;28;20105;-81
2022/01/02 02:03:20;;;;;;;18.77;7.38;;;;;;;-141.50;100.00;63355.56;5081158;28;20098;-81
2022/01/02 02:05:47;;;;;;;13.32;6.55;;;;;;;-141.50;100.00;63355.56;5089219;28;20054;-82
2022/01/02 02:08:14;;;;;;;15.25;6.55;;;;;;;-141.50;100.00;63355.56;5093627;28;20522;-80
2022/01/02 02:10:45;;;;;;;17.80;6.45;;;;;;;-141.50;100.00;63355.56;5095804;28;20048;-81
2022/01/02 02:13:12;;;;;;;12.48;6.65;;;;;;;-141.50;100.00;63355.56;5109082;28;20040;-81
2022/01/02 02:15:38;;;;;;;16.05;7.32;;;;;;;-141.50;100.00;63355.56;5115269;28;20043;-82
2022/01/02 02:18:05;;;;;;;17.25;7.72;;;;;;;-141.50;100.00;63355.56;5109885;28;20058;-82
2022/01/02 02:20:35;;;;;;;22.38;8.07;;;;;;;-141.50;100.00;63355.56;5106279;28;20048;-81
2022/01/02 02:23:03;;;;;;;17.85;6.63;;;;;;;-141.50;100.00;63355.56;5101545;28;20067;-81
2022/01/02 02:25:32;;;;;;;14.70;7.70;;;;;;;-141.50;100.00;63355.56;5093779;28;20071;-81
2022/01/02 02:28:10;;;;;;;17.90;7.75;;;;;;;-141.50;100.00;63355.56;5091488;28;20075;-82
2022/01/02 02:30:39;;;;;;;16.30;7.00;;;;;;;-141.50;100.00;63355.56;5092928;28;20048;-81
2022/01/02 02:33:08;;;;;;;22.42;7.85;;;;;;;-141.50;100.00;63355.56;5090960;28;20473;-81
2022/01/02 02:35:37;;;;;;;17.90;6.88;;;;;;;-141.50;100.00;63355.56;5093225;28;20461;-82
2022/01/02 02:38:08;;;;;;;17.55;6.88;;;;;;;-141.50;100.00;63355.56;5092151;28;20083;-82
2022/01/02 02:40:36;;;;;;;14.45;6.65;;;;;;;-141.50;100.00;63355.56;5091415;28;20511;-80
2022/01/02 02:51:05;;;;;;;14.90;6.57;;;;;;;-141.50;100.00;63355.56;5091987;28;20105;-80
2022/01/02 02:53:38;;;;;;;15.55;6.25;;;;;;;-141.50;100.00;63355.56;5093536;28;20079;-81
2022/01/02 02:56:26;;;;;;;11.88;5.47;;;;;;;-141.50;100.00;63355.56;5093423;28;20083;-81
2022/01/02 02:58:55;;;;;;;15.00;5.32;;;;;;;-141.50;100.00;63355.56;5091807;28;20044;-81
2022/01/02 03:01:25;;;;;;;9.93;4.57;;;;;;;-141.50;100.00;63355.56;5092486;28;20052;-82
2022/01/02 03:03:52;;;;;;;9.35;4.78;;;;;;;-141.50;100.00;63355.56;5079397;28;20052;-81
2022/01/02 03:06:19;;;;;;;9.32;4.40;;;;;;;-141.50;100.00;63355.56;5072291;28;20080;-82
2022/01/02 03:08:47;;;;;;;8.85;4.55;;;;;;;-141.50;100.00;63355.56;5072714;28;20060;-83
2022/01/02 03:11:19;;;;;;;9.93;4.82;;;;;;;-141.50;100.00;63355.56;5073412;28;20139;-81
2022/01/02 03:13:48;;;;;;;9.95;4.68;;;;;;;-141.50;100.00;63355.56;5074064;28;20143;-81
2022/01/02 03:16:15;;;;;;;10.70;5.15;;;;;;;-141.50;100.00;63355.56;5074610;28;20111;-82
2022/01/02 03:18:42;;;;;;;11.00;5.38;;;;;;;-141.50;100.00;63355.56;5071953;28;20144;-82
2022/01/02 03:21:10;;;;;;;13.02;6.10;;;;;;;-141.50;100.00;63355.56;5072533;28;20076;-82
2022/01/02 03:23:37;;;;;;;14.20;6.13;;;;;;;-141.50;100.00;63355.56;5073003;28;20081;-82
2022/01/02 03:26:03;;;;;;;13.45;6.40;;;;;;;-141.50;100.00;63355.56;5073199;28;20078;-82
2022/01/02 03:28:30;;;;;;;12.85;6.53;;;;;;;-141.50;100.00;63355.56;5070361;28;20048;-82
2022/01/02 03:30:56;;;;;;;14.18;6.55;;;;;;;-141.50;100.00;63355.56;5075422;28;20458;-81
2022/01/02 03:33:23;;;;;;;15.27;6.78;;;;;;;-141.50;100.00;63355.56;5109810;28;20103;-80
2022/01/02 03:35:50;;;;;;;14.32;4.85;;;;;;;-141.50;100.00;63355.56;5070221;28;20074;-80
2022/01/02 03:38:16;;;;;;;9.60;4.10;;;;;;;-141.50;100.00;63355.56;5070915;28;20165;-80
2022/01/02 03:40:43;;;;;;;8.15;3.70;;;;;;;-141.50;100.00;63355.56;5071506;28;20048;-81
2022/01/02 03:43:10;;;;;;;7.57;3.40;;;;;;;-141.50;100.00;63355.56;5070295;28;20048;-81
2022/01/02 03:45:36;;;;;;;7.07;3.08;;;;;;;-141.50;100.00;63355.56;5071225;28;20071;-82
2022/01/02 03:48:03;;;;;;;8.73;2.88;;;;;;;-141.50;100.00;63355.56;5071076;28;20059;-81
2022/01/02 03:50:29;;;;;;;5.28;2.90;;;;;;;-141.50;100.00;63355.56;5071777;28;20105;-81
2022/01/02 03:52:56;;;;;;;8.55;2.90;;;;;;;-141.50;100.00;63355.56;5071672;28;20048;-80
2022/01/02 03:55:23;;;;;;;6.15;2.47;;;;;;;-141.50;100.00;63355.56;5071931;28;20072;-82
2022/01/02 03:57:49;;;;;;;6.60;2.95;;;;;;;-141.50;100.00;63355.56;5069106;28;20084;-82
2022/01/02 04:00:18;;;;;;;5.55;2.40;;;;;;;-141.50;100.00;63355.56;5071677;28;20060;-79
2022/01/02 04:02:46;;;;;;;4.03;2.20;;;;;;;-141.50;100.00;63355.56;5070511;28;20052;-81
2022/01/02 04:05:14;;;;;;;7.35;2.78;;;;;;;-141.50;100.00;63355.56;5071549;28;20080;-81
2022/01/02 04:07:42;;;;;;;4.28;2.10;;;;;;;-141.50;100.00;63355.56;5071640;28;20489;-80
2022/01/02 04:10:12;;;;;;;4.57;2.30;;;;;;;-141.50;100.00;63355.56;5068692;28;20052;-80
2022/01/02 04:12:40;;;;;;;5.95;2.40;;;;;;;-141.50;100.00;63355.56;5068686;28;20040;-81
2022/01/02 04:15:09;;;;;;;4.60;2.40;;;;;;;-141.50;100.00;63355.56;5071450;28;20098;-80
2022/01/02 04:17:36;;;;;;;4.53;1.98;;;;;;;-141.50;100.00;63355.56;5069708;28;20060;-80
2022/01/02 04:20:07;;;;;;;5.97;2.20;;;;;;;-141.50;100.00;63355.56;5069342;28;20106;-78
2022/01/02 04:22:34;;;;;;;5.07;2.03;;;;;;;-141.50;100.00;63355.56;5070752;28;20071;-81
2022/01/02 04:25:02;;;;;;;4.43;1.80;;;;;;;-141.50;100.00;63355.56;5071544;28;20079;-82
2022/01/02 04:27:29;;;;;;;6.80;2.05;;;;;;;-141.50;100.00;63355.56;5070141;28;20048;-82
2022/01/02 04:29:55;;;;;;;6.63;2.20;;;;;;;-141.50;100.00;63355.56;5070426;28;20496;-78
2022/01/02 04:32:22;;;;;;;5.75;2.40;;;;;;;-141.50;100.00;63355.56;5070377;28;20441;-78
2022/01/02 04:34:48;;;;;;;6.97;2.72;;;;;;;-141.50;100.00;63355.56;5070431;28;20060;-79
2022/01/02 04:37:15;;;;;;;7.22;2.15;;;;;;;-141.50;100.00;63355.56;5086602;28;20048;-78
2022/01/02 04:39:42;;;;;;;5.88;2.65;;;;;;;-141.50;100.00;63355.56;5070639;28;20044;-78
2022/01/02 04:42:08;;;;;;;3.95;2.17;;;;;;;-141.50;100.00;63355.56;5069802;28;20163;-79
2022/01/02 04:44:35;;;;;;;4.43;2.03;;;;;;;-141.50;100.00;63355.56;5086533;28;20512;-79
2022/01/02 04:47:02;;;;;;;6.43;2.10;;;;;;;-141.50;100.00;63355.56;5085646;28;20044;-79
2022/01/02 04:49:28;;;;;;;3.83;2.00;;;;;;;-141.50;100.00;63355.56;5069193;28;20085;-76
2022/01/02 04:51:55;;;;;;;4.50;2.10;;;;;;;-141.50;100.00;63355.56;5068791;28;20088;-79
2022/01/02 04:54:22;;;;;;;5.32;2.10;;;;;;;-141.50;100.00;63355.56;5070951;28;20496;-79
2022/01/02 04:56:49;;;;;;;4.65;2.10;;;;;;;-141.50;100.00;63355.56;5070075;28;20554;-79
2022/01/02 04:59:15;;;;;;;4.70;1.77;;;;;;;-141.50;100.00;63355.56;5085587;28;20082;-79
2022/01/02 05:01:42;;;;;;;3.15;1.80;;;;;;;-141.50;100.00;63355.56;5069003;28;20052;-78
2022/01/02 05:04:09;;;;;;;4.32;1.90;;;;;;;-141.50;100.00;63355.56;5072001;28;20131;-79
2022/01/02 05:06:35;;;;;;;4.15;1.83;;;;;;;-141.50;100.00;63355.56;5071332;28;20052;-80
2022/01/02 05:09:02;;;;;;;3.30;1.73;;;;;;;-141.50;100.00;63355.56;5071358;28;20094;-78
2022/01/02 05:11:29;;;;;;;4.30;1.85;;;;;;;-141.50;100.00;63355.56;5071203;28;20056;-77
2022/01/02 05:13:56;;;;;;;4.28;1.98;;;;;;;-141.50;100.00;63355.56;5086918;28;20045;-79
2022/01/02 05:16:22;;;;;;;4.72;1.80;;;;;;;-141.50;100.00;63355.56;5072036;28;20053;-79
2022/01/02 05:18:49;;;;;;;3.92;1.80;;;;;;;-141.50;100.00;63355.56;5070361;28;20048;-79
2022/01/02 05:21:15;;;;;;;6.50;1.90;;;;;;;-141.50;100.00;63355.56;5069820;28;20044;-79
2022/01/02 05:23:42;;;;;;;5.22;2.00;;;;;;;-141.50;100.00;63355.56;5072324;28;20048;-79
2022/01/02 05:26:09;;;;;;;4.25;1.60;;;;;;;-141.50;100.00;63355.56;5088117;28;20178;-79
2022/01/02 05:28:35;;;;;;;4.50;1.73;;;;;;;-141.50;100.00;63355.56;5072215;28;20083;-79
2022/01/02 05:31:02;;;;;;;2.20;1.40;;;;;;;-141.50;100.00;63355.56;5073286;28;20584;-79
2022/01/02 05:33:29;;;;;;;4.28;1.70;;;;;;;-141.50;100.00;63355.56;5073377;28;20052;-78
2022/01/02 05:35:55;;;;;;;4.45;1.67;;;;;;;-141.50;100.00;63355.56;5074795;28;20056;-79
2022/01/02 05:38:22;;;;;;;4.25;1.88;;;;;;;-141.50;100.00;63355.56;5089973;28;20048;-79
2022/01/02 05:40:50;;;;;;;5.30;2.03;;;;;;;-141.50;100.00;63355.56;5092725;28;20079;-78
2022/01/02 05:43:17;;;;;;;4.88;1.70;;;;;;;-141.50;100.00;63355.56;5095268;28;20063;-79
2022/01/02 05:45:43;;;;;;;2.95;1.73;;;;;;;-141.50;100.00;63355.56;5088539;28;20048;-78
2022/01/02 05:48:10;;;;;;;5.35;1.80;;;;;;;-141.50;100.00;63355.56;5070342;28;20555;-78
2022/01/02 05:50:37;;;;;;;6.88;1.88;;;;;;;-141.50;100.00;63355.56;5070523;28;20057;-78
2022/01/02 05:53:03;;;;;;;3.40;1.40;;;;;;;-141.50;100.00;63355.56;5070744;28;20044;-78
2022/01/02 05:55:30;;;;;;;6.35;2.00;;;;;;;-141.50;100.00;63355.56;5069899;28;20444;-79
2022/01/02 05:57:56;;;;;;;3.85;1.67;;;;;;;-141.50;100.00;63355.56;5069872;28;20055;-79
2022/01/02 06:00:23;;;;;;;4.28;1.80;;;;;;;-141.50;100.00;63355.56;5069859;28;20049;-78
2022/01/02 06:02:51;;;;;;;5.15;1.65;;;;;;;-141.50;100.00;63355.56;5069866;28;20541;-78
2022/01/02 06:05:18;;;;;;;3.55;1.75;;;;;;;-141.50;100.00;63355.56;5069424;28;20135;-77
2022/01/02 06:07:44;;;;;;;5.35;1.80;;;;;;;-141.50;100.00;63355.56;5069167;28;20113;-78
2022/01/02 06:10:11;;;;;;;6.03;1.67;;;;;;;-141.50;100.00;63355.56;5068462;28;20100;-77
2022/01/02 06:12:37;;;;;;;3.85;1.60;;;;;;;-141.50;100.00;63355.56;5068008;28;20094;-77
2022/01/02 06:15:06;;;;;;;5.18;2.35;;;;;;;-141.50;100.00;63355.56;5068466;28;20045;-78
2022/01/02 06:17:33;;;;;;;4.32;1.73;;;;;;;-141.50;100.00;63355.56;5068053;28;20059;-78
2022/01/02 06:20:00;;;;;;;3.08;1.50;;;;;;;-141.50;100.00;63355.56;5067294;28;20056;-78
2022/01/02 06:22:26;;;;;;;3.88;1.77;;;;;;;-141.50;100.00;63355.56;5067229;28;20057;-76
2022/01/02 06:24:53;;;;;;;4.35;1.70;;;;;;;-141.50;100.00;63355.56;5069048;28;20094;-78
2022/01/02 06:27:20;;;;;;;5.43;1.70;;;;;;;-141.50;100.00;63355.56;5067804;28;20052;-78
2022/01/02 06:29:47;;;;;;;4.20;1.67;;;;;;;-141.50;100.00;63355.56;5068370;28;20072;-78
2022/01/02 06:32:13;;;;;;;4.93;1.75;;;;;;;-141.50;100.00;63355.56;5068231;28;20075;-78
2022/01/02 06:34:40;;;;;;;4.80;1.77;;;;;;;-141.50;100.00;63355.56;5067240;28;20455;-78
2022/01/02 06:37:07;;;;;;;3.75;1.40;;;;;;;-141.50;100.00;63355.56;5068451;28;20068;-78
2022/01/02 06:39:33;;;;;;;5.15;2.00;;;;;;;-141.50;100.00;63355.56;5067235;28;20381;-78
2022/01/02 06:42:01;;;;;;;5.22;1.88;;;;;;;-141.50;100.00;63355.56;5071722;28;20078;-77
2022/01/02 06:44:27;;;;;;;7.60;2.10;;;;;;;-141.50;100.00;63355.56;5071358;28;20086;-77
2022/01/02 06:46:54;;;;;;;3.47;1.60;;;;;;;-141.50;100.00;63355.56;5071801;28;20382;-77
2022/01/02 06:49:20;;;;;;;4.30;1.92;;;;;;;-141.50;100.00;63355.56;5071792;28;20098;-79
2022/01/02 06:51:47;;;;;;;4.50;2.00;;;;;;;-141.50;100.00;63355.56;5070384;28;20110;-79
2022/01/02 06:54:14;;;;;;;3.00;1.67;;;;;;;-141.50;100.00;63355.56;5072672;28;20049;-79
2022/01/02 06:56:40;;;;;;;5.85;2.05;;;;;;;-141.50;100.00;63355.56;5079677;28;20041;-79
2022/01/02 06:59:07;;;;;;;3.20;1.90;;;;;;;-141.50;100.00;63355.56;5083273;28;20097;-79
2022/01/02 07:01:33;;;;;;;3.47;2.00;;;;;;;-141.50;100.00;63355.56;5091753;28;20048;-78
2022/01/02 07:04:00;;;;;;;4.97;1.95;;;;;;;-141.50;100.00;63355.56;5090833;28;20138;-78
2022/01/02 07:06:27;;;;;;;4.18;1.77;;;;;;;-141.50;100.00;63355.56;5092535;28;20124;-78
2022/01/02 07:08:53;;;;;;;5.03;2.10;;;;;;;-141.50;100.00;63355.56;5093340;28;20048;-77
2022/01/02 07:11:20;;;;;;;5.43;2.03;;;;;;;-141.50;100.00;63355.56;5091347;28;20101;-78
2022/01/02 07:13:46;;;;;;;4.15;2.05;;;;;;;-141.50;100.00;63355.56;5090975;28;20536;-78
2022/01/02 07:16:13;;;;;;;6.82;1.92;;;;;;;-141.50;100.00;63355.56;5093298;28;20084;-78
2022/01/02 07:18:39;;;;;;;6.07;2.15;;;;;;;-141.50;100.00;63355.56;5091319;28;20056;-78
2022/01/02 07:21:06;;;;;;;5.47;2.00;;;;;;;-141.50;100.00;63355.56;5091413;28;20090;-77
2022/01/02 07:23:32;;;;;;;4.35;2.10;;;;;;;-141.50;100.00;63355.56;5091878;28;20598;-78
2022/01/02 07:25:59;;;;;;;3.08;1.73;;;;;;;-141.50;100.00;63355.56;5091956;28;20079;-79
2022/01/02 07:28:25;;;;;;;3.00;1.90;;;;;;;-141.50;100.00;63355.56;5089165;28;20104;-77
2022/01/02 07:30:52;;;;;;;5.07;2.17;;;;;;;-141.50;100.00;63355.56;5091866;28;20040;-78
2022/01/02 07:33:18;;;;;;;5.43;2.10;;;;;;;-141.50;100.00;63355.56;5089097;28;20059;-78
2022/01/02 07:35:45;;;;;;;3.53;1.73;;;;;;;-141.50;100.00;63355.56;5091487;28;20048;-78
2022/01/02 07:38:29;;;;;;;3.92;2.13;;;;;;;-141.50;100.00;63355.56;5091340;28;20052;-78
2022/01/02 07:40:56;;;;;;;4.45;2.08;;;;;;;-141.50;100.00;63355.56;5088535;28;20453;-77
2022/01/02 07:43:23;;;;;;;5.53;2.10;;;;;;;-141.50;100.00;63355.56;5089467;28;20044;-80
2022/01/02 07:45:49;;;;;;;4.97;2.28;;;;;;;-141.50;100.00;63355.56;5092370;28;20105;-80
2022/01/02 07:48:16;;;;;;;4.70;2.03;;;;;;;-141.50;100.00;63355.56;5089686;28;20056;-78
2022/01/02 07:50:42;;;;;;;4.75;1.80;;;;;;;-141.50;100.00;63355.56;5090018;28;20048;-78
2022/01/02 07:53:09;;;;;;;4.05;2.20;;;;;;;-141.50;100.00;63355.56;5078907;28;20095;-79
2022/01/02 07:55:35;;;;;;;3.38;1.90;;;;;;;-141.50;100.00;63355.56;5072863;28;20080;-80
2022/01/02 07:58:02;;;;;;;7.60;2.47;;;;;;;-141.50;100.00;63355.56;5071975;28;20056;-79
2022/01/02 08:00:29;;;;;;;5.80;2.00;;;;;;;-141.50;100.00;63355.56;5090474;28;20048;-80
2022/01/02 08:02:55;;;;;;;5.93;2.25;;;;;;;-141.50;100.00;63355.56;5107064;28;20048;-78
2022/01/02 08:05:22;;;;;;;3.80;2.08;;;;;;;-141.50;100.00;63355.56;5099842;28;20032;-81
2022/01/02 08:07:49;;;;;;;4.82;2.28;;;;;;;-141.50;100.00;63355.56;5100490;28;20052;-80
2022/01/02 08:10:16;;;;;;;6.75;2.13;;;;;;;-141.50;100.00;63355.56;5102546;28;20048;-78
2022/01/02 08:12:43;;;;;;;7.82;2.35;;;;;;;-141.50;100.00;63355.56;5087124;28;20644;-78
2022/01/02 08:15:10;;;;;;;6.75;2.33;;;;;;;-141.50;100.00;63355.56;5087322;28;20142;-79
2022/01/02 08:17:36;;;;;;;3.50;2.17;;;;;;;-141.50;100.00;63355.56;5087774;28;20051;-79
2022/01/02 08:20:04;;;;;;;6.38;2.08;;;;;;;-141.50;100.00;63355.56;5086531;28;20117;-80
2022/01/02 08:22:30;;;;;;;4.82;2.22;;;;;;;-141.50;100.00;63355.56;5086327;28;20116;-79
2022/01/02 08:24:57;;;;;;;4.90;2.10;;;;;;;-141.50;100.00;63355.56;5086987;28;20052;-77
2022/01/02 08:27:23;;;;;;;5.05;2.08;;;;;;;-141.50;100.00;63355.56;5085169;28;20051;-79
2022/01/02 08:29:52;;;;;;;4.25;2.13;;;;;;;-141.50;100.00;63355.56;5087686;28;20051;-79
2022/01/02 08:32:18;;;;;;;4.60;2.08;;;;;;;-141.50;100.00;63355.56;5087223;28;20117;-80
2022/01/02 08:34:49;;;;;;;4.72;2.15;;;;;;;-141.50;100.00;63355.56;5087655;28;20114;-79
2022/01/02 08:37:17;;;;;;;5.32;2.05;;;;;;;-141.50;100.00;63355.56;5087102;28;20052;-80
2022/01/02 08:39:44;;;;;;;4.90;2.10;;;;;;;-141.50;100.00;63355.56;5086162;28;20055;-79
2022/01/02 08:42:13;;;;;;;4.47;2.10;;;;;;;-141.50;100.00;63355.56;5088026;28;20125;-78
2022/01/02 08:44:41;;;;;;;5.60;1.80;;;;;;;-141.50;100.00;63355.56;5081625;28;20048;-78
2022/01/02 08:47:08;;;;;;;5.60;2.20;;;;;;;-141.50;100.00;63355.56;5076996;28;20129;-78
2022/01/02 08:49:36;;;;;;;5.28;1.90;;;;;;;-141.50;100.00;63355.56;5074468;28;20048;-78
2022/01/02 08:52:03;;;;;;;5.40;2.00;;;;;;;-141.50;100.00;63355.56;5085045;28;20082;-78
2022/01/02 08:54:29;;;;;;;4.38;1.90;;;;;;;-141.50;100.00;63355.56;5086443;28;20056;-78
2022/01/02 08:56:56;;;;;;;5.75;2.03;;;;;;;-141.50;100.00;63355.56;5087365;28;20179;-78
2022/01/02 08:59:24;;;;;;;6.72;2.05;;;;;;;-141.50;100.00;63355.56;5087030;28;20452;-78
2022/01/02 09:01:51;;;;;;;4.97;1.88;;;;;;;-141.50;100.00;63355.56;5084401;28;20063;-77
2022/01/02 09:04:18;;;;;;;4.50;2.13;;;;;;;-141.50;100.00;63355.56;5084103;28;20087;-78
2022/01/02 09:06:45;;;;;;;4.95;1.88;;;;;;;-141.50;100.00;63355.56;5085642;28;20642;-78
2022/01/02 09:09:11;;;;;;;3.25;1.80;;;;;;;-141.50;100.00;63355.56;5102015;28;20055;-77
2022/01/02 09:11:38;;;;;;;4.05;1.60;;;;;;;-141.50;100.00;63355.56;5095985;28;20101;-78
2022/01/02 09:14:04;;;;;;;7.35;2.00;;;;;;;-141.50;100.00;63355.56;5080148;28;20481;-79
2022/01/02 09:16:31;;;;;;;6.25;1.70;;;;;;;-141.50;100.00;63355.56;5069267;28;20047;-77
2022/01/02 09:18:58;;;;;;;4.72;1.80;;;;;;;-141.50;100.00;63355.56;5069539;28;20311;-77
2022/01/02 09:21:24;;;;;;;3.97;1.85;;;;;;;-141.50;100.00;63355.56;5072444;28;20040;-78
2022/01/02 09:23:51;;;;;;;7.75;2.20;;;;;;;-141.50;100.00;63355.56;5075171;28;20128;-77
2022/01/02 09:26:17;;;;;;;4.18;1.88;;;;;;;-141.50;100.00;63355.56;5075578;28;20072;-78
2022/01/02 09:28:43;;;;;;;5.10;1.83;;;;;;;-141.50;100.00;63355.56;5071468;28;20044;-78
2022/01/02 09:31:10;;;;;;;4.70;1.75;;;;;;;-141.50;100.00;63355.56;5079440;28;20663;-78
2022/01/02 09:33:37;;;;;;;5.47;1.83;;;;;;;-141.50;100.00;63355.56;5071859;28;20052;-78
2022/01/02 09:36:03;;;;;;;4.22;1.55;;;;;;;-141.50;100.00;63355.56;5076024;28;20150;-78
2022/01/02 09:38:30;;;;;;;10.75;2.05;;;;;;;-141.50;100.00;63355.56;5070394;28;20963;-78
2022/01/02 09:40:59;;;;;;;6.80;1.80;;;;;;;-141.50;100.00;63355.56;5063258;28;20057;-76
2022/01/02 09:43:26;;;;;;;4.45;1.90;;;;;;;-141.50;100.00;63355.56;5077931;28;20128;-78
2022/01/02 09:45:53;;;;;;;11.02;1.75;;;;;;;-141.50;100.00;63355.56;5088283;28;20056;-77
2022/01/02 09:48:21;;;;;;;6.00;1.80;;;;;;;-141.50;100.00;63355.56;5071050;28;20044;-77
2022/01/02 09:50:48;;;;;;;4.78;1.67;;;;;;;-141.50;100.00;63355.56;5072155;28;20405;-80
2022/01/02 09:53:15;;;;;;;6.28;1.75;;;;;;;-141.50;100.00;63355.56;5071600;28;20079;-77
2022/01/02 09:55:42;;;;;;;4.70;1.75;;;;;;;-141.50;100.00;63355.56;5075495;28;20048;-77
2022/01/02 09:58:12;;;;;;;7.90;2.55;;;;;;;-141.50;100.00;63355.56;5073416;28;20083;-77
2022/01/02 10:00:43;;;;;;;3.80;1.88;;;;;;;-141.50;100.00;63355.56;5073541;28;20105;-78
2022/01/02 10:03:11;;;;;;;7.38;2.00;;;;;;;-141.50;100.00;63355.56;5073045;28;20874;-77
2022/01/02 10:05:53;;;;;;;5.45;1.92;;;;;;;-141.50;100.00;63355.56;5073540;28;20040;-79
2022/01/02 10:08:28;;;;;;;5.47;2.10;;;;;;;-141.50;100.00;63355.56;5073750;28;20501;-78
2022/01/02 10:11:04;;;;;;;3.92;2.15;;;;;;;-141.50;100.00;63355.56;5076444;28;20107;-80
2022/01/02 10:13:48;;;;;;;5.60;1.52;;;;;;;-141.50;100.00;63355.56;5073877;28;20044;-80
2022/01/02 10:16:33;;;;;;;5.68;2.00;;;;;;;-141.50;100.00;63355.56;5082762;28;20083;-79
2022/01/02 10:19:17;;;;;;;6.13;2.00;;;;;;;-141.50;100.00;63355.56;5081308;28;20225;-80
2022/01/02 10:22:04;;;;;;;7.30;1.83;;;;;;;-141.50;100.00;63355.56;5080422;28;20833;-79
2022/01/02 10:24:31;;;;;;;4.80;1.80;;;;;;;-141.50;100.00;63355.56;5077475;28;20086;-78
2022/01/02 10:27:02;;;;;;;5.07;1.77;;;;;;;-141.50;100.00;63355.56;5069109;28;20113;-78
2022/01/02 10:29:48;;;;;;;5.10;1.92;;;;;;;-141.50;100.00;63355.56;5067723;28;20056;-78
2022/01/02 10:32:32;;;;;;;3.83;1.60;;;;;;;-141.50;100.00;63355.56;5071909;28;20052;-77
2022/01/02 10:35:14;;;;;;;6.43;1.90;;;;;;;-141.50;100.00;63355.56;5069095;28;20636;-77
2022/01/02 10:37:51;;;;;;;4.72;2.13;;;;;;;-141.50;100.00;63355.56;5073188;28;20556;-78
2022/01/02 10:40:34;;;;;;;5.88;2.08;;;;;;;-141.50;100.00;63355.56;5086801;28;20080;-78
2022/01/02 10:43:22;;;;;;;4.68;1.70;;;;;;;-141.50;100.00;63355.56;5076328;28;20137;-78
2022/01/02 10:45:50;;;;;;;5.22;1.73;;;;;;;-141.50;100.00;63355.56;5079982;28;20557;-79
2022/01/02 10:48:29;;;;;;;6.95;1.85;;;;;;;-141.50;100.00;63355.56;5074336;28;20558;-79
2022/01/02 10:51:03;;;;;;;3.63;1.75;;;;;;;-141.50;100.00;63355.56;5077184;28;20071;-79
2022/01/02 10:53:31;;;;;;;7.97;1.95;;;;;;;-141.50;100.00;63355.56;5076878;28;20142;-79
2022/01/02 10:55:59;;;;;;;7.00;1.98;;;;;;;-141.50;100.00;63355.56;5078242;28;20076;-78
2022/01/02 10:58:26;;;;;;;7.13;1.83;;;;;;;-141.50;100.00;63355.56;5077064;28;20079;-79
2022/01/02 11:00:55;;;;;;;6.72;1.90;;;;;;;-141.50;100.00;63355.56;5079904;28;20625;-77
2022/01/02 11:03:25;;;;;;;6.93;1.92;;;;;;;-141.50;100.00;63355.56;5076227;28;20053;-78
2022/01/02 11:06:04;;;;;;;7.38;1.63;;;;;;;-141.50;100.00;63355.56;5077846;28;20147;-78
2022/01/02 11:08:33;;;;;;;4.45;2.03;;;;;;;-141.50;100.00;63355.56;5078042;28;20075;-77
2022/01/02 11:11:01;;;;;;;5.18;2.30;;;;;;;-141.50;100.00;63355.56;5078175;28;20041;-77
2022/01/02 11:13:28;;;;;;;4.65;2.25;;;;;;;-141.50;100.00;63355.56;5074286;28;20056;-78
2022/01/02 11:15:55;;;;;;;5.97;2.53;;;;;;;-141.50;100.00;63355.56;5067281;28;20109;-77
2022/01/02 11:18:22;;;;;;;4.13;1.92;;;;;;;-141.50;100.00;63355.56;5066833;28;20304;-77
2022/01/02 11:20:49;;;;;;;4.85;2.20;;;;;;;-141.50;100.00;63355.56;5067385;28;20057;-77